sensor_id;sensor_type;location;lat;lon;timestamp;temperature;humidity
25628;DHT22;40915;50.826;4.356;2023-01-30T00:01:23;5.10;99.90
25628;DHT22;40915;50.826;4.356;2023-01-30T00:03:49;5.00;99.90
25628;DHT22;40915;50.826;4.356;2023-01-30T00:06:15;5.00;99.90
25628;DHT22;40915;50.826;4.356;2023-01-30T00:08:40;5.00;99.90
25628;DHT22;40915;50.826;4.356;2023-01-30T00:11:08;5.10;99.90
25628;DHT22;40915;50.826;4.356;2023-01-30T00:13:35;5.10;99.90
25628;DHT22;40915;50.826;4.356;2023-01-30T00:16:00;5.10;99.90
25628;DHT22;40915;50.826;4.356;2023-01-30T00:18:26;5.10;99.90
25628;DHT22;40915;50.826;4.356;2023-01-30T00:20:59;5.10;99.90
25628;DHT22;40915;50.826;4.356;2023-01-30T00:23:26;5.10;99.90
25628;DHT22;40915;50.826;4.356;2023-01-30T00:25:52;5.10;99.90
25628;DHT22;40915;50.826;4.356;2023-01-30T00:28:18;5.10;99.90
25628;DHT22;40915;50.826;4.356;2023-01-30T00:30:46;5.10;99.90
25628;DHT22;40915;50.826;4.356;2023-01-30T00:33:12;5.30;99.90
25628;DHT22;40915;50.826;4.356;2023-01-30T00:35:43;5.10;99.90
25628;DHT22;40915;50.826;4.356;2023-01-30T00:38:08;5.10;99.90
25628;DHT22;40915;50.826;4.356;2023-01-30T00:40:34;5.10;99.90
25628;DHT22;40915;50.826;4.356;2023-01-30T00:43:00;5.20;99.90
25628;DHT22;40915;50.826;4.356;2023-01-30T00:45:44;5.20;99.90
25628;DHT22;40915;50.826;4.356;2023-01-30T00:48:29;5.20;99.90
25628;DHT22;40915;50.826;4.356;2023-01-30T00:50:55;5.20;99.90
25628;DHT22;40915;50.826;4.356;2023-01-30T00:53:20;5.20;99.90
25628;DHT22;40915;50.826;4.356;2023-01-30T00:55:46;5.20;99.90
25628;DHT22;40915;50.826;4.356;2023-01-30T00:58:12;5.20;99.90
25628;DHT22;40915;50.826;4.356;2023-01-30T01:00:38;5.20;99.90
25628;DHT22;40915;50.826;4.356;2023-01-30T01:03:04;5.20;99.90
25628;DHT22;40915;50.826;4.356;2023-01-30T01:05:29;5.20;99.90
25628;DHT22;40915;50.826;4.356;2023-01-30T01:07:55;5.20;99.90
25628;DHT22;40915;50.826;4.356;2023-01-30T01:10:21;5.30;99.90
25628;DHT22;40915;50.826;4.356;2023-01-30T01:12:49;5.30;99.90
25628;DHT22;40915;50.826;4.356;2023-01-30T01:15:17;5.30;99.90
25628;DHT22;40915;50.826;4.356;2023-01-30T01:17:44;5.30;99.90
25628;DHT22;40915;50.826;4.356;2023-01-30T01:20:09;5.30;99.90
25628;DHT22;40915;50.826;4.356;2023-01-30T01:22:35;5.30;99.90
25628;DHT22;40915;50.826;4.356;2023-01-30T01:25:01;5.30;99.90
25628;DHT22;40915;50.826;4.356;2023-01-30T01:27:28;5.30;99.90
25628;DHT22;40915;50.826;4.356;2023-01-30T01:29:53;5.30;99.90
25628;DHT22;40915;50.826;4.356;2023-01-30T01:32:20;5.40;99.90
25628;DHT22;40915;50.826;4.356;2023-01-30T01:34:46;5.40;99.90
25628;DHT22;40915;50.826;4.356;2023-01-30T01:37:11;5.50;99.90
25628;DHT22;40915;50.826;4.356;2023-01-30T01:39:37;5.50;99.90
25628;DHT22;40915;50.826;4.356;2023-01-30T01:42:24;5.40;99.90
25628;DHT22;40915;50.826;4.356;2023-01-30T01:47:42;5.50;99.90
25628;DHT22;40915;50.826;4.356;2023-01-30T01:50:15;5.40;99.90
25628;DHT22;40915;50.826;4.356;2023-01-30T01:52:43;5.40;99.90
25628;DHT22;40915;50.826;4.356;2023-01-30T01:55:10;5.40;99.90
25628;DHT22;40915;50.826;4.356;2023-01-30T01:57:49;5.50;99.90
25628;DHT22;40915;50.826;4.356;2023-01-30T02:00:20;5.50;99.90
25628;DHT22;40915;50.826;4.356;2023-01-30T02:03:07;5.50;99.90
25628;DHT22;40915;50.826;4.356;2023-01-30T02:05:37;5.50;99.90
25628;DHT22;40915;50.826;4.356;2023-01-30T02:08:31;5.50;99.90
25628;DHT22;40915;50.826;4.356;2023-01-30T02:13:35;5.60;99.90
25628;DHT22;40915;50.826;4.356;2023-01-30T02:16:03;5.60;99.90
25628;DHT22;40915;50.826;4.356;2023-01-30T02:18:30;5.60;99.90
25628;DHT22;40915;50.826;4.356;2023-01-30T02:21:30;5.60;99.90
25628;DHT22;40915;50.826;4.356;2023-01-30T02:29:38;5.60;99.90
25628;DHT22;40915;50.826;4.356;2023-01-30T02:51:34;5.60;99.90
25628;DHT22;40915;50.826;4.356;2023-01-30T02:54:00;5.70;99.90
25628;DHT22;40915;50.826;4.356;2023-01-30T02:56:26;5.80;99.90
25628;DHT22;40915;50.826;4.356;2023-01-30T02:58:56;5.80;99.90
25628;DHT22;40915;50.826;4.356;2023-01-30T03:01:36;5.70;99.90
25628;DHT22;40915;50.826;4.356;2023-01-30T03:04:29;5.80;99.90
25628;DHT22;40915;50.826;4.356;2023-01-30T03:07:17;5.70;99.90
25628;DHT22;40915;50.826;4.356;2023-01-30T03:15:53;5.90;99.90
25628;DHT22;40915;50.826;4.356;2023-01-30T03:18:20;5.90;99.90
25628;DHT22;40915;50.826;4.356;2023-01-30T03:20:47;5.80;99.90
25628;DHT22;40915;50.826;4.356;2023-01-30T03:23:12;5.90;99.90
25628;DHT22;40915;50.826;4.356;2023-01-30T03:25:40;5.90;99.90
25628;DHT22;40915;50.826;4.356;2023-01-30T03:28:07;6.00;99.90
25628;DHT22;40915;50.826;4.356;2023-01-30T03:30:33;5.90;99.90
25628;DHT22;40915;50.826;4.356;2023-01-30T03:32:59;5.90;99.90
25628;DHT22;40915;50.826;4.356;2023-01-30T03:35:25;6.00;99.90
25628;DHT22;40915;50.826;4.356;2023-01-30T03:37:51;6.00;99.90
25628;DHT22;40915;50.826;4.356;2023-01-30T03:40:17;5.90;99.90
25628;DHT22;40915;50.826;4.356;2023-01-30T03:42:42;6.00;99.90
25628;DHT22;40915;50.826;4.356;2023-01-30T03:45:09;6.00;99.90
25628;DHT22;40915;50.826;4.356;2023-01-30T03:47:35;6.10;99.90
25628;DHT22;40915;50.826;4.356;2023-01-30T03:50:00;6.10;99.90
25628;DHT22;40915;50.826;4.356;2023-01-30T03:52:26;6.10;99.90
25628;DHT22;40915;50.826;4.356;2023-01-30T03:54:52;6.10;99.90
25628;DHT22;40915;50.826;4.356;2023-01-30T03:57:17;6.10;99.90
25628;DHT22;40915;50.826;4.356;2023-01-30T03:59:43;6.10;99.90
25628;DHT22;40915;50.826;4.356;2023-01-30T04:02:09;6.20;99.90
25628;DHT22;40915;50.826;4.356;2023-01-30T04:04:35;6.20;99.90
25628;DHT22;40915;50.826;4.356;2023-01-30T04:07:01;6.20;99.90
25628;DHT22;40915;50.826;4.356;2023-01-30T04:09:26;6.20;99.90
25628;DHT22;40915;50.826;4.356;2023-01-30T04:11:52;6.20;99.90
25628;DHT22;40915;50.826;4.356;2023-01-30T04:14:17;6.10;99.90
25628;DHT22;40915;50.826;4.356;2023-01-30T04:16:45;6.10;99.90
25628;DHT22;40915;50.826;4.356;2023-01-30T04:19:10;6.10;99.90
25628;DHT22;40915;50.826;4.356;2023-01-30T04:21:36;6.20;99.90
25628;DHT22;40915;50.826;4.356;2023-01-30T04:24:02;6.20;99.90
25628;DHT22;40915;50.826;4.356;2023-01-30T04:26:28;6.20;99.90
25628;DHT22;40915;50.826;4.356;2023-01-30T04:28:53;6.20;99.90
25628;DHT22;40915;50.826;4.356;2023-01-30T04:31:19;6.20;99.90
25628;DHT22;40915;50.826;4.356;2023-01-30T04:33:44;6.20;99.90
25628;DHT22;40915;50.826;4.356;2023-01-30T04:36:10;6.20;99.90
25628;DHT22;40915;50.826;4.356;2023-01-30T04:38:37;6.10;99.90
25628;DHT22;40915;50.826;4.356;2023-01-30T04:41:04;6.10;99.90
25628;DHT22;40915;50.826;4.356;2023-01-30T04:43:30;6.20;99.90
25628;DHT22;40915;50.826;4.356;2023-01-30T04:45:56;6.20;99.90
25628;DHT22;40915;50.826;4.356;2023-01-30T04:48:23;6.30;99.90
25628;DHT22;40915;50.826;4.356;2023-01-30T04:50:51;6.20;99.90
25628;DHT22;40915;50.826;4.356;2023-01-30T04:53:18;6.20;99.90
25628;DHT22;40915;50.826;4.356;2023-01-30T04:55:44;6.20;99.90
25628;DHT22;40915;50.826;4.356;2023-01-30T04:58:10;6.30;99.90
25628;DHT22;40915;50.826;4.356;2023-01-30T05:00:36;6.30;99.90
25628;DHT22;40915;50.826;4.356;2023-01-30T05:03:02;6.30;99.90
25628;DHT22;40915;50.826;4.356;2023-01-30T05:05:27;6.30;99.90
25628;DHT22;40915;50.826;4.356;2023-01-30T05:07:54;6.40;99.90
25628;DHT22;40915;50.826;4.356;2023-01-30T05:10:19;6.40;99.90
25628;DHT22;40915;50.826;4.356;2023-01-30T05:12:45;6.40;99.90
25628;DHT22;40915;50.826;4.356;2023-01-30T05:15:11;6.40;99.90
25628;DHT22;40915;50.826;4.356;2023-01-30T05:17:37;6.40;99.90
25628;DHT22;40915;50.826;4.356;2023-01-30T05:20:05;6.40;99.90
25628;DHT22;40915;50.826;4.356;2023-01-30T05:22:31;6.40;99.90
25628;DHT22;40915;50.826;4.356;2023-01-30T05:24:57;6.40;99.90
25628;DHT22;40915;50.826;4.356;2023-01-30T05:27:22;6.40;99.90
25628;DHT22;40915;50.826;4.356;2023-01-30T05:29:48;6.40;99.90
25628;DHT22;40915;50.826;4.356;2023-01-30T05:32:15;6.50;99.90
25628;DHT22;40915;50.826;4.356;2023-01-30T05:34:41;6.50;99.90
25628;DHT22;40915;50.826;4.356;2023-01-30T05:37:06;6.50;99.90
25628;DHT22;40915;50.826;4.356;2023-01-30T05:39:32;6.50;99.90
25628;DHT22;40915;50.826;4.356;2023-01-30T05:41:58;6.50;99.90
25628;DHT22;40915;50.826;4.356;2023-01-30T05:44:23;6.50;99.90
25628;DHT22;40915;50.826;4.356;2023-01-30T05:46:49;6.50;99.90
25628;DHT22;40915;50.826;4.356;2023-01-30T05:49:15;6.50;99.90
25628;DHT22;40915;50.826;4.356;2023-01-30T05:51:40;6.50;99.90
25628;DHT22;40915;50.826;4.356;2023-01-30T05:54:06;6.50;99.90
25628;DHT22;40915;50.826;4.356;2023-01-30T05:56:31;6.50;99.90
25628;DHT22;40915;50.826;4.356;2023-01-30T05:58:58;6.50;99.90
25628;DHT22;40915;50.826;4.356;2023-01-30T06:01:24;6.50;99.90
25628;DHT22;40915;50.826;4.356;2023-01-30T06:03:50;6.60;99.90
25628;DHT22;40915;50.826;4.356;2023-01-30T06:06:16;6.60;99.90
25628;DHT22;40915;50.826;4.356;2023-01-30T06:08:42;6.60;99.90
25628;DHT22;40915;50.826;4.356;2023-01-30T06:11:10;6.50;99.90
25628;DHT22;40915;50.826;4.356;2023-01-30T06:13:36;6.60;99.90
25628;DHT22;40915;50.826;4.356;2023-01-30T06:16:03;6.60;99.90
25628;DHT22;40915;50.826;4.356;2023-01-30T06:18:28;6.70;99.90
25628;DHT22;40915;50.826;4.356;2023-01-30T06:20:54;6.60;99.90
25628;DHT22;40915;50.826;4.356;2023-01-30T06:23:20;6.60;99.90
25628;DHT22;40915;50.826;4.356;2023-01-30T06:25:48;6.60;99.90
25628;DHT22;40915;50.826;4.356;2023-01-30T06:28:15;6.60;99.90
25628;DHT22;40915;50.826;4.356;2023-01-30T06:30:41;6.70;99.90
25628;DHT22;40915;50.826;4.356;2023-01-30T06:33:09;6.70;99.90
25628;DHT22;40915;50.826;4.356;2023-01-30T06:35:37;6.70;99.90
25628;DHT22;40915;50.826;4.356;2023-01-30T06:38:02;6.60;99.90
25628;DHT22;40915;50.826;4.356;2023-01-30T06:40:28;6.60;99.90
25628;DHT22;40915;50.826;4.356;2023-01-30T06:42:53;6.70;99.90
25628;DHT22;40915;50.826;4.356;2023-01-30T06:45:19;6.60;99.90
25628;DHT22;40915;50.826;4.356;2023-01-30T06:50:14;6.60;99.90
25628;DHT22;40915;50.826;4.356;2023-01-30T06:52:42;6.70;99.90
25628;DHT22;40915;50.826;4.356;2023-01-30T06:55:09;6.70;99.90
25628;DHT22;40915;50.826;4.356;2023-01-30T06:57:35;6.80;99.90
25628;DHT22;40915;50.826;4.356;2023-01-30T07:00:05;6.80;99.90
25628;DHT22;40915;50.826;4.356;2023-01-30T07:02:31;6.80;99.90
25628;DHT22;40915;50.826;4.356;2023-01-30T07:05:00;6.90;99.90
25628;DHT22;40915;50.826;4.356;2023-01-30T07:07:26;6.90;99.90
25628;DHT22;40915;50.826;4.356;2023-01-30T07:09:51;6.90;99.90
25628;DHT22;40915;50.826;4.356;2023-01-30T07:12:17;6.90;99.90
25628;DHT22;40915;50.826;4.356;2023-01-30T07:14:43;7.00;99.90
25628;DHT22;40915;50.826;4.356;2023-01-30T07:17:08;7.00;99.90
25628;DHT22;40915;50.826;4.356;2023-01-30T07:19:34;7.00;99.90
25628;DHT22;40915;50.826;4.356;2023-01-30T07:21:59;6.90;99.90
25628;DHT22;40915;50.826;4.356;2023-01-30T07:24:25;7.00;99.90
25628;DHT22;40915;50.826;4.356;2023-01-30T07:26:50;7.00;99.90
25628;DHT22;40915;50.826;4.356;2023-01-30T07:29:16;7.00;99.90
25628;DHT22;40915;50.826;4.356;2023-01-30T07:31:41;7.00;99.90
25628;DHT22;40915;50.826;4.356;2023-01-30T07:34:07;7.00;99.90
25628;DHT22;40915;50.826;4.356;2023-01-30T07:36:32;7.10;99.90
25628;DHT22;40915;50.826;4.356;2023-01-30T07:38:59;7.10;99.90
25628;DHT22;40915;50.826;4.356;2023-01-30T07:41:26;7.10;99.90
25628;DHT22;40915;50.826;4.356;2023-01-30T07:43:52;7.10;99.90
25628;DHT22;40915;50.826;4.356;2023-01-30T07:46:17;7.20;99.90
25628;DHT22;40915;50.826;4.356;2023-01-30T07:48:44;7.30;99.90
25628;DHT22;40915;50.826;4.356;2023-01-30T07:51:09;7.10;99.90
25628;DHT22;40915;50.826;4.356;2023-01-30T07:53:35;7.00;99.90
25628;DHT22;40915;50.826;4.356;2023-01-30T07:56:09;7.00;99.90
25628;DHT22;40915;50.826;4.356;2023-01-30T07:58:34;6.90;99.90
25628;DHT22;40915;50.826;4.356;2023-01-30T08:01:01;6.90;99.90
25628;DHT22;40915;50.826;4.356;2023-01-30T08:03:26;6.90;99.90
25628;DHT22;40915;50.826;4.356;2023-01-30T08:05:52;6.90;99.90
25628;DHT22;40915;50.826;4.356;2023-01-30T08:08:18;6.90;99.90
25628;DHT22;40915;50.826;4.356;2023-01-30T08:10:44;6.90;99.90
25628;DHT22;40915;50.826;4.356;2023-01-30T08:13:12;6.90;99.90
25628;DHT22;40915;50.826;4.356;2023-01-30T08:15:38;6.90;99.90
25628;DHT22;40915;50.826;4.356;2023-01-30T08:18:04;7.00;99.90
25628;DHT22;40915;50.826;4.356;2023-01-30T08:20:32;7.00;99.90
25628;DHT22;40915;50.826;4.356;2023-01-30T08:22:58;7.00;99.90
25628;DHT22;40915;50.826;4.356;2023-01-30T08:25:25;7.00;99.90
25628;DHT22;40915;50.826;4.356;2023-01-30T08:27:51;7.10;99.90
25628;DHT22;40915;50.826;4.356;2023-01-30T08:30:18;7.10;99.90
25628;DHT22;40915;50.826;4.356;2023-01-30T08:32:44;7.10;99.90
25628;DHT22;40915;50.826;4.356;2023-01-30T08:35:09;7.10;99.90
25628;DHT22;40915;50.826;4.356;2023-01-30T08:37:35;7.10;99.90
25628;DHT22;40915;50.826;4.356;2023-01-30T08:40:01;7.10;99.90
25628;DHT22;40915;50.826;4.356;2023-01-30T08:42:27;7.10;99.90
25628;DHT22;40915;50.826;4.356;2023-01-30T08:44:52;7.20;99.90
25628;DHT22;40915;50.826;4.356;2023-01-30T08:47:18;7.10;99.90
25628;DHT22;40915;50.826;4.356;2023-01-30T08:49:44;7.20;99.90
25628;DHT22;40915;50.826;4.356;2023-01-30T08:52:09;7.10;99.90
25628;DHT22;40915;50.826;4.356;2023-01-30T08:54:35;7.10;99.90
25628;DHT22;40915;50.826;4.356;2023-01-30T08:57:00;7.10;99.90
25628;DHT22;40915;50.826;4.356;2023-01-30T08:59:26;7.10;99.90
25628;DHT22;40915;50.826;4.356;2023-01-30T09:01:52;7.10;99.90
25628;DHT22;40915;50.826;4.356;2023-01-30T09:04:17;7.10;99.90
25628;DHT22;40915;50.826;4.356;2023-01-30T09:06:43;7.10;99.90
25628;DHT22;40915;50.826;4.356;2023-01-30T09:09:08;7.10;99.90
25628;DHT22;40915;50.826;4.356;2023-01-30T09:11:34;7.20;99.90
25628;DHT22;40915;50.826;4.356;2023-01-30T09:13:59;7.30;99.90
25628;DHT22;40915;50.826;4.356;2023-01-30T09:16:25;7.30;99.90
25628;DHT22;40915;50.826;4.356;2023-01-30T09:18:50;7.30;99.90
25628;DHT22;40915;50.826;4.356;2023-01-30T09:21:16;7.20;99.90
25628;DHT22;40915;50.826;4.356;2023-01-30T09:23:42;7.40;99.90
25628;DHT22;40915;50.826;4.356;2023-01-30T09:26:07;7.40;99.90
25628;DHT22;40915;50.826;4.356;2023-01-30T09:28:33;7.50;99.90
25628;DHT22;40915;50.826;4.356;2023-01-30T09:31:00;7.50;99.90
25628;DHT22;40915;50.826;4.356;2023-01-30T09:33:26;7.60;99.90
25628;DHT22;40915;50.826;4.356;2023-01-30T09:35:52;7.50;99.90
25628;DHT22;40915;50.826;4.356;2023-01-30T09:38:18;7.50;99.90
25628;DHT22;40915;50.826;4.356;2023-01-30T09:46:40;7.60;99.90
25628;DHT22;40915;50.826;4.356;2023-01-30T09:49:32;7.60;99.90
25628;DHT22;40915;50.826;4.356;2023-01-30T09:52:19;7.60;99.90
25628;DHT22;40915;50.826;4.356;2023-01-30T09:54:47;7.60;99.90
25628;DHT22;40915;50.826;4.356;2023-01-30T09:57:19;7.60;99.90
25628;DHT22;40915;50.826;4.356;2023-01-30T10:02:37;7.70;99.90
25628;DHT22;40915;50.826;4.356;2023-01-30T10:05:04;7.60;99.90
25628;DHT22;40915;50.826;4.356;2023-01-30T10:10:47;7.60;99.90
25628;DHT22;40915;50.826;4.356;2023-01-30T10:14:34;7.60;99.90
25628;DHT22;40915;50.826;4.356;2023-01-30T10:27:07;8.00;99.90
25628;DHT22;40915;50.826;4.356;2023-01-30T10:29:39;8.00;99.90
25628;DHT22;40915;50.826;4.356;2023-01-30T10:32:22;8.00;99.90
25628;DHT22;40915;50.826;4.356;2023-01-30T10:34:54;8.00;99.90
25628;DHT22;40915;50.826;4.356;2023-01-30T10:37:26;8.10;99.90
25628;DHT22;40915;50.826;4.356;2023-01-30T10:40:25;8.10;99.90
25628;DHT22;40915;50.826;4.356;2023-01-30T10:43:09;8.10;99.90
25628;DHT22;40915;50.826;4.356;2023-01-30T10:48:48;8.00;99.90
25628;DHT22;40915;50.826;4.356;2023-01-30T10:51:32;8.10;99.90
25628;DHT22;40915;50.826;4.356;2023-01-30T10:54:14;8.20;99.90
25628;DHT22;40915;50.826;4.356;2023-01-30T10:59:48;8.60;99.90
25628;DHT22;40915;50.826;4.356;2023-01-30T11:02:24;8.50;99.90
25628;DHT22;40915;50.826;4.356;2023-01-30T11:04:58;8.60;99.90
25628;DHT22;40915;50.826;4.356;2023-01-30T11:07:25;8.70;99.90
25628;DHT22;40915;50.826;4.356;2023-01-30T11:09:56;8.70;99.90
25628;DHT22;40915;50.826;4.356;2023-01-30T11:12:23;8.80;99.90
25628;DHT22;40915;50.826;4.356;2023-01-30T11:14:56;8.90;99.90
25628;DHT22;40915;50.826;4.356;2023-01-30T11:17:32;8.90;99.90
25628;DHT22;40915;50.826;4.356;2023-01-30T11:20:12;8.90;99.90
25628;DHT22;40915;50.826;4.356;2023-01-30T11:22:49;8.90;99.90
25628;DHT22;40915;50.826;4.356;2023-01-30T11:25:20;8.80;99.90
25628;DHT22;40915;50.826;4.356;2023-01-30T11:28:00;8.80;99.90
25628;DHT22;40915;50.826;4.356;2023-01-30T11:30:34;8.90;99.90
25628;DHT22;40915;50.826;4.356;2023-01-30T11:33:13;8.90;99.90
25628;DHT22;40915;50.826;4.356;2023-01-30T11:36:04;8.80;99.90
25628;DHT22;40915;50.826;4.356;2023-01-30T11:38:35;8.80;99.90
25628;DHT22;40915;50.826;4.356;2023-01-30T11:43:35;8.90;99.90
25628;DHT22;40915;50.826;4.356;2023-01-30T11:46:05;9.00;99.90
25628;DHT22;40915;50.826;4.356;2023-01-30T11:48:33;9.00;99.90
25628;DHT22;40915;50.826;4.356;2023-01-30T11:51:03;9.00;99.90
25628;DHT22;40915;50.826;4.356;2023-01-30T11:53:36;8.90;99.90
25628;DHT22;40915;50.826;4.356;2023-01-30T11:56:14;8.90;99.90
25628;DHT22;40915;50.826;4.356;2023-01-30T11:58:42;8.90;99.90
25628;DHT22;40915;50.826;4.356;2023-01-30T12:01:15;8.90;99.90
25628;DHT22;40915;50.826;4.356;2023-01-30T12:03:47;8.90;99.90
25628;DHT22;40915;50.826;4.356;2023-01-30T12:06:28;8.90;99.90
25628;DHT22;40915;50.826;4.356;2023-01-30T12:08:55;9.00;99.90
25628;DHT22;40915;50.826;4.356;2023-01-30T12:11:30;9.00;99.90
25628;DHT22;40915;50.826;4.356;2023-01-30T12:16:56;9.00;99.90
25628;DHT22;40915;50.826;4.356;2023-01-30T12:25:08;9.00;99.90
25628;DHT22;40915;50.826;4.356;2023-01-30T12:27:56;9.00;99.90
25628;DHT22;40915;50.826;4.356;2023-01-30T12:32:59;8.90;99.90
25628;DHT22;40915;50.826;4.356;2023-01-30T12:35:54;9.00;99.90
25628;DHT22;40915;50.826;4.356;2023-01-30T12:55:18;9.00;99.90
25628;DHT22;40915;50.826;4.356;2023-01-30T12:57:58;9.00;99.90
25628;DHT22;40915;50.826;4.356;2023-01-30T13:00:28;9.00;99.90
25628;DHT22;40915;50.826;4.356;2023-01-30T13:05:56;9.00;99.90
25628;DHT22;40915;50.826;4.356;2023-01-30T13:08:33;8.90;99.90
25628;DHT22;40915;50.826;4.356;2023-01-30T13:11:26;8.90;99.90
25628;DHT22;40915;50.826;4.356;2023-01-30T13:22:34;9.10;99.90
25628;DHT22;40915;50.826;4.356;2023-01-30T13:27:52;9.00;99.90
25628;DHT22;40915;50.826;4.356;2023-01-30T13:30:20;9.00;99.90
25628;DHT22;40915;50.826;4.356;2023-01-30T13:32:52;8.90;99.90
25628;DHT22;40915;50.826;4.356;2023-01-30T13:35:25;9.00;99.90
25628;DHT22;40915;50.826;4.356;2023-01-30T13:37:53;9.00;99.90
25628;DHT22;40915;50.826;4.356;2023-01-30T13:40:27;8.90;99.90
25628;DHT22;40915;50.826;4.356;2023-01-30T13:43:03;8.90;99.90
25628;DHT22;40915;50.826;4.356;2023-01-30T13:45:31;8.90;99.90
25628;DHT22;40915;50.826;4.356;2023-01-30T13:56:38;8.80;99.90
25628;DHT22;40915;50.826;4.356;2023-01-30T14:09:40;8.70;99.90
25628;DHT22;40915;50.826;4.356;2023-01-30T14:12:22;8.70;99.90
25628;DHT22;40915;50.826;4.356;2023-01-30T14:15:04;8.70;99.90
25628;DHT22;40915;50.826;4.356;2023-01-30T14:17:31;8.70;99.90
25628;DHT22;40915;50.826;4.356;2023-01-30T14:27:54;8.80;99.90
25628;DHT22;40915;50.826;4.356;2023-01-30T14:31:01;8.80;99.90
25628;DHT22;40915;50.826;4.356;2023-01-30T14:38:29;8.70;99.90
25628;DHT22;40915;50.826;4.356;2023-01-30T14:43:47;8.80;99.90
25628;DHT22;40915;50.826;4.356;2023-01-30T15:04:36;8.60;99.90
25628;DHT22;40915;50.826;4.356;2023-01-30T15:07:08;8.60;99.90
25628;DHT22;40915;50.826;4.356;2023-01-30T15:09:36;8.60;99.90
25628;DHT22;40915;50.826;4.356;2023-01-30T15:12:29;8.50;99.90
25628;DHT22;40915;50.826;4.356;2023-01-30T15:23:51;8.50;99.90
25628;DHT22;40915;50.826;4.356;2023-01-30T15:32:24;8.40;99.90
25628;DHT22;40915;50.826;4.356;2023-01-30T15:34:55;8.30;99.90
25628;DHT22;40915;50.826;4.356;2023-01-30T15:40:29;8.30;99.90
25628;DHT22;40915;50.826;4.356;2023-01-30T15:43:14;8.30;99.90
25628;DHT22;40915;50.826;4.356;2023-01-30T15:48:57;8.30;99.90
25628;DHT22;40915;50.826;4.356;2023-01-30T15:51:26;8.30;99.90
25628;DHT22;40915;50.826;4.356;2023-01-30T15:53:54;8.30;99.90
25628;DHT22;40915;50.826;4.356;2023-01-30T15:56:24;8.30;99.90
25628;DHT22;40915;50.826;4.356;2023-01-30T15:58:50;8.30;99.90
25628;DHT22;40915;50.826;4.356;2023-01-30T16:01:19;8.20;99.90
25628;DHT22;40915;50.826;4.356;2023-01-30T16:03:46;8.20;99.90
25628;DHT22;40915;50.826;4.356;2023-01-30T16:06:32;8.20;99.90
25628;DHT22;40915;50.826;4.356;2023-01-30T16:09:04;8.20;99.90
25628;DHT22;40915;50.826;4.356;2023-01-30T16:11:37;8.10;99.90
25628;DHT22;40915;50.826;4.356;2023-01-30T16:14:03;8.10;99.90
25628;DHT22;40915;50.826;4.356;2023-01-30T16:16:30;8.10;99.90
25628;DHT22;40915;50.826;4.356;2023-01-30T16:18:59;8.00;99.90
25628;DHT22;40915;50.826;4.356;2023-01-30T16:21:30;8.10;99.90
25628;DHT22;40915;50.826;4.356;2023-01-30T16:24:00;8.00;99.90
25628;DHT22;40915;50.826;4.356;2023-01-30T16:26:27;8.00;99.90
25628;DHT22;40915;50.826;4.356;2023-01-30T16:29:03;8.00;99.90
25628;DHT22;40915;50.826;4.356;2023-01-30T16:31:37;8.00;99.90
25628;DHT22;40915;50.826;4.356;2023-01-30T16:34:03;8.00;99.90
25628;DHT22;40915;50.826;4.356;2023-01-30T16:36:33;8.00;99.90
25628;DHT22;40915;50.826;4.356;2023-01-30T16:39:02;8.00;99.90
25628;DHT22;40915;50.826;4.356;2023-01-30T16:41:37;8.00;99.90
25628;DHT22;40915;50.826;4.356;2023-01-30T16:44:16;8.00;99.90
25628;DHT22;40915;50.826;4.356;2023-01-30T16:49:17;7.90;99.90
25628;DHT22;40915;50.826;4.356;2023-01-30T16:51:45;8.00;99.90
25628;DHT22;40915;50.826;4.356;2023-01-30T16:54:24;7.90;99.90
25628;DHT22;40915;50.826;4.356;2023-01-30T16:56:53;7.90;99.90
25628;DHT22;40915;50.826;4.356;2023-01-30T16:59:34;7.90;99.90
25628;DHT22;40915;50.826;4.356;2023-01-30T17:02:01;7.90;99.90
25628;DHT22;40915;50.826;4.356;2023-01-30T17:04:31;7.90;99.90
25628;DHT22;40915;50.826;4.356;2023-01-30T17:07:02;7.90;99.90
25628;DHT22;40915;50.826;4.356;2023-01-30T17:09:37;7.90;99.90
25628;DHT22;40915;50.826;4.356;2023-01-30T17:17:41;7.90;99.90
25628;DHT22;40915;50.826;4.356;2023-01-30T17:20:08;7.90;99.90
25628;DHT22;40915;50.826;4.356;2023-01-30T17:22:36;7.90;99.90
25628;DHT22;40915;50.826;4.356;2023-01-30T17:25:33;7.80;99.90
25628;DHT22;40915;50.826;4.356;2023-01-30T17:28:03;7.80;99.90
25628;DHT22;40915;50.826;4.356;2023-01-30T17:30:29;7.80;99.90
25628;DHT22;40915;50.826;4.356;2023-01-30T17:32:55;7.80;99.90
25628;DHT22;40915;50.826;4.356;2023-01-30T17:35:20;7.70;99.90
25628;DHT22;40915;50.826;4.356;2023-01-30T17:37:46;7.80;99.90
25628;DHT22;40915;50.826;4.356;2023-01-30T17:40:18;7.80;99.90
25628;DHT22;40915;50.826;4.356;2023-01-30T17:42:44;7.80;99.90
25628;DHT22;40915;50.826;4.356;2023-01-30T17:45:11;7.70;99.90
25628;DHT22;40915;50.826;4.356;2023-01-30T17:47:37;7.70;99.90
25628;DHT22;40915;50.826;4.356;2023-01-30T17:50:03;7.70;99.90
25628;DHT22;40915;50.826;4.356;2023-01-30T17:52:28;7.70;99.90
25628;DHT22;40915;50.826;4.356;2023-01-30T17:54:54;7.70;99.90
25628;DHT22;40915;50.826;4.356;2023-01-30T17:57:20;7.70;99.90
25628;DHT22;40915;50.826;4.356;2023-01-30T17:59:45;7.70;99.90
25628;DHT22;40915;50.826;4.356;2023-01-30T18:02:11;7.70;99.90
25628;DHT22;40915;50.826;4.356;2023-01-30T18:04:37;7.60;99.90
25628;DHT22;40915;50.826;4.356;2023-01-30T18:07:05;7.70;99.90
25628;DHT22;40915;50.826;4.356;2023-01-30T18:09:34;7.60;99.90
25628;DHT22;40915;50.826;4.356;2023-01-30T18:12:00;7.70;99.90
25628;DHT22;40915;50.826;4.356;2023-01-30T18:14:26;7.70;99.90
25628;DHT22;40915;50.826;4.356;2023-01-30T18:16:52;7.70;99.90
25628;DHT22;40915;50.826;4.356;2023-01-30T18:19:20;7.60;99.90
25628;DHT22;40915;50.826;4.356;2023-01-30T18:21:48;7.70;99.90
25628;DHT22;40915;50.826;4.356;2023-01-30T18:24:14;7.70;99.90
25628;DHT22;40915;50.826;4.356;2023-01-30T18:26:40;7.70;99.90
25628;DHT22;40915;50.826;4.356;2023-01-30T18:29:06;7.70;99.90
25628;DHT22;40915;50.826;4.356;2023-01-30T18:31:32;7.60;99.90
25628;DHT22;40915;50.826;4.356;2023-01-30T18:33:57;7.60;99.90
25628;DHT22;40915;50.826;4.356;2023-01-30T18:36:23;7.60;99.90
25628;DHT22;40915;50.826;4.356;2023-01-30T18:38:49;7.60;99.90
25628;DHT22;40915;50.826;4.356;2023-01-30T18:41:17;7.60;99.90
25628;DHT22;40915;50.826;4.356;2023-01-30T18:43:43;7.50;99.90
25628;DHT22;40915;50.826;4.356;2023-01-30T18:46:12;7.60;99.90
25628;DHT22;40915;50.826;4.356;2023-01-30T18:48:44;7.60;99.90
25628;DHT22;40915;50.826;4.356;2023-01-30T18:51:15;7.50;99.90
25628;DHT22;40915;50.826;4.356;2023-01-30T18:53:42;7.50;99.90
25628;DHT22;40915;50.826;4.356;2023-01-30T18:56:13;7.40;99.90
25628;DHT22;40915;50.826;4.356;2023-01-30T18:58:38;7.40;99.90
25628;DHT22;40915;50.826;4.356;2023-01-30T19:01:09;7.30;99.90
25628;DHT22;40915;50.826;4.356;2023-01-30T19:03:36;7.30;99.90
25628;DHT22;40915;50.826;4.356;2023-01-30T19:06:02;7.30;99.90
25628;DHT22;40915;50.826;4.356;2023-01-30T19:08:27;7.20;99.90
25628;DHT22;40915;50.826;4.356;2023-01-30T19:10:53;7.20;99.90
25628;DHT22;40915;50.826;4.356;2023-01-30T19:13:18;7.20;99.90